createdAt,value
2018-12-12T00:02:22.439Z,6.67
2018-12-12T00:04:56.048Z,6.12
2018-12-12T00:07:44.290Z,6.65
2018-12-12T00:10:19.425Z,6.25
2018-12-12T00:12:47.740Z,6.60
2018-12-12T00:15:16.668Z,6.70
2018-12-12T00:17:44.325Z,6.28
2018-12-12T00:22:44.182Z,5.97
2018-12-12T00:25:11.493Z,5.75
2018-12-12T00:27:38.902Z,6.40
2018-12-12T00:30:06.473Z,6.12
2018-12-12T00:32:34.016Z,6.55
2018-12-12T00:35:01.535Z,6.55
2018-12-12T00:37:31.322Z,6.50
2018-12-12T00:39:58.665Z,6.83
2018-12-12T00:42:26.227Z,6.92
2018-12-12T00:44:53.538Z,7.17
2018-12-12T00:47:20.906Z,6.67
2018-12-12T00:49:48.374Z,6.67
2018-12-12T00:52:20.783Z,6.85
2018-12-12T00:54:48.579Z,6.60
2018-12-12T00:57:16.158Z,6.90
2018-12-12T00:59:43.514Z,6.95
2018-12-12T01:02:11.129Z,7.00
2018-12-12T01:04:39.833Z,8.03
2018-12-12T01:07:07.816Z,7.33
2018-12-12T01:09:35.085Z,7.15
2018-12-12T01:12:08.377Z,6.87
2018-12-12T01:14:35.784Z,7.25
2018-12-12T01:17:03.303Z,7.72
2018-12-12T01:19:34.390Z,7.45
2018-12-12T01:22:01.890Z,7.20
2018-12-12T01:24:29.155Z,6.75
2018-12-12T01:26:57.337Z,7.17
2018-12-12T01:29:24.658Z,6.80
2018-12-12T01:31:58.877Z,6.65
2018-12-12T01:34:26.360Z,7.00
2018-12-12T01:36:54.098Z,7.40
2018-12-12T01:39:21.570Z,6.87
2018-12-12T01:41:49.012Z,7.58
2018-12-12T01:44:22.076Z,6.90
2018-12-12T01:46:49.510Z,6.60
2018-12-12T01:49:16.722Z,6.85
2018-12-12T01:51:44.029Z,7.12
2018-12-12T01:54:11.308Z,7.33
2018-12-12T01:56:38.643Z,7.15
2018-12-12T01:59:09.637Z,6.92
2018-12-12T02:01:37.185Z,6.90
2018-12-12T02:04:04.541Z,7.70
2018-12-12T02:06:31.757Z,7.47
2018-12-12T02:08:58.990Z,7.50
2018-12-12T02:11:26.246Z,7.90
2018-12-12T02:13:57.956Z,6.92
2018-12-12T02:16:25.411Z,8.20
2018-12-12T02:18:53.198Z,7.50
2018-12-12T02:21:20.608Z,6.83
2018-12-12T02:23:47.940Z,7.00
2018-12-12T02:26:15.194Z,7.50
2018-12-12T02:28:44.594Z,7.08
2018-12-12T02:31:12.557Z,7.35
2018-12-12T02:33:39.838Z,7.65
2018-12-12T02:36:07.095Z,7.15
2018-12-12T02:38:34.324Z,8.05
2018-12-12T02:41:06.942Z,8.53
2018-12-12T02:43:34.317Z,7.53
2018-12-12T02:46:02.022Z,8.63
2018-12-12T02:48:29.295Z,8.60
2018-12-12T02:50:56.587Z,7.53
2018-12-12T02:53:23.841Z,9.00
2018-12-12T02:55:55.815Z,8.43
2018-12-12T02:58:23.185Z,7.83
2018-12-12T03:00:50.514Z,8.73
2018-12-12T03:03:17.876Z,8.70
2018-12-12T03:05:45.207Z,10.08
2018-12-12T03:08:12.462Z,8.45
2018-12-12T03:10:43.034Z,7.62
2018-12-12T03:13:10.355Z,9.13
2018-12-12T03:15:37.642Z,8.73
2018-12-12T03:18:05.042Z,7.97
2018-12-12T03:20:32.272Z,8.55
2018-12-12T03:22:59.573Z,8.53
2018-12-12T03:25:30.393Z,8.60
2018-12-12T03:27:57.709Z,8.20
2018-12-12T03:30:25.092Z,8.85
2018-12-12T03:32:52.416Z,9.30
2018-12-12T03:35:19.704Z,8.40
2018-12-12T03:37:47.039Z,9.73
2018-12-12T03:40:18.749Z,8.15
2018-12-12T03:42:46.649Z,8.85
2018-12-12T03:45:14.240Z,9.10
2018-12-12T03:47:41.561Z,8.68
2018-12-12T03:50:09.061Z,8.88
2018-12-12T03:52:36.386Z,8.88
2018-12-12T03:55:05.643Z,8.75
2018-12-12T03:57:32.947Z,9.18
2018-12-12T04:00:01.613Z,8.38
2018-12-12T04:02:29.992Z,9.10
2018-12-12T04:04:58.477Z,10.08
2018-12-12T04:07:30.558Z,8.35
2018-12-12T04:09:58.010Z,8.80
2018-12-12T04:12:25.681Z,8.15
2018-12-12T04:14:53.069Z,8.88
2018-12-12T04:17:20.391Z,9.98
2018-12-12T04:19:48.808Z,9.50
2018-12-12T04:22:18.599Z,8.70
2018-12-12T04:24:46.181Z,9.03
2018-12-12T04:27:13.554Z,9.28
2018-12-12T04:29:41.970Z,8.53
2018-12-12T04:32:10.429Z,9.68
2018-12-12T04:34:45.675Z,8.95
2018-12-12T04:37:13.083Z,9.58
2018-12-12T04:39:40.386Z,10.00
2018-12-12T04:42:07.882Z,10.08
2018-12-12T04:44:35.144Z,9.75
2018-12-12T04:47:02.463Z,10.38
2018-12-12T04:49:30.170Z,8.95
2018-12-12T04:51:58.486Z,10.53
2018-12-12T04:54:26.024Z,9.98
2018-12-12T04:56:53.504Z,10.23
2018-12-12T04:59:22.516Z,10.30
2018-12-12T05:01:51.053Z,11.95
2018-12-12T05:04:26.051Z,10.40
2018-12-12T05:06:53.878Z,9.73
2018-12-12T05:09:21.394Z,10.03
2018-12-12T05:11:48.642Z,9.98
2018-12-12T05:14:15.908Z,10.43
2018-12-12T05:16:47.962Z,10.88
2018-12-12T05:19:15.230Z,10.90
2018-12-12T05:21:42.601Z,11.18
2018-12-12T05:24:10.205Z,11.33
2018-12-12T05:26:37.483Z,10.95
2018-12-12T05:31:38.104Z,11.48
2018-12-12T05:34:05.653Z,10.32
2018-12-12T05:36:32.950Z,10.82
2018-12-12T05:39:00.565Z,12.82
2018-12-12T05:41:28.001Z,11.00
2018-12-12T05:43:58.294Z,11.03
2018-12-12T05:46:25.888Z,9.98
2018-12-12T05:48:53.186Z,10.80
2018-12-12T05:51:20.576Z,10.60
2018-12-12T05:53:47.870Z,11.18
2018-12-12T05:58:48.646Z,11.05
2018-12-12T06:01:15.948Z,11.33
2018-12-12T06:03:43.253Z,10.85
2018-12-12T06:06:10.535Z,11.70
2018-12-12T06:08:39.037Z,11.33
2018-12-12T06:11:07.966Z,12.10
2018-12-12T06:13:35.264Z,10.53
2018-12-12T06:16:03.796Z,10.40
2018-12-12T06:18:32.243Z,12.40
2018-12-12T06:21:02.713Z,13.15
2018-12-12T06:23:41.432Z,12.88
2018-12-12T06:26:08.822Z,12.23
2018-12-12T06:28:36.256Z,12.90
2018-12-12T06:31:03.769Z,11.93
2018-12-12T06:33:33.608Z,12.18
2018-12-12T06:36:01.125Z,12.50
2018-12-12T06:38:28.510Z,12.00
2018-12-12T06:40:56.541Z,11.75
2018-12-12T06:43:23.933Z,12.10
2018-12-12T06:45:51.221Z,10.65
2018-12-12T06:48:18.576Z,11.50
2018-12-12T06:50:50.733Z,12.10
2018-12-12T06:53:20.590Z,11.63
2018-12-12T06:55:48.117Z,11.97
2018-12-12T06:58:15.413Z,13.45
2018-12-12T07:00:42.877Z,12.15
2018-12-12T07:03:13.781Z,13.35
2018-12-12T07:05:41.742Z,13.28
2018-12-12T07:08:09.162Z,12.95
2018-12-12T07:10:36.617Z,13.45
2018-12-12T07:13:03.906Z,13.90
2018-12-12T07:15:35.833Z,13.43
2018-12-12T07:18:03.666Z,13.40
2018-12-12T07:20:30.929Z,14.90
2018-12-12T07:22:58.205Z,14.18
2018-12-12T07:25:25.633Z,14.58
2018-12-12T07:27:52.953Z,15.00
2018-12-12T07:30:22.686Z,14.85
2018-12-12T07:32:50.001Z,13.80
2018-12-12T07:35:17.304Z,13.72
2018-12-12T07:37:44.901Z,13.70
2018-12-12T07:40:12.230Z,14.00
2018-12-12T07:45:11.854Z,13.43
2018-12-12T07:47:39.197Z,14.60
2018-12-12T07:50:06.756Z,14.65
2018-12-12T07:52:34.074Z,13.80
2018-12-12T07:55:01.531Z,14.00
2018-12-12T08:00:11.469Z,14.93
2018-12-12T08:02:38.772Z,14.18
2018-12-12T08:05:11.457Z,15.08
2018-12-12T08:07:38.801Z,15.30
2018-12-12T08:10:06.426Z,15.72
2018-12-12T08:12:33.742Z,15.25
2018-12-12T08:15:01.162Z,14.90
2018-12-12T08:17:34.830Z,15.25
2018-12-12T08:20:02.408Z,15.68
2018-12-12T08:22:29.828Z,16.25
2018-12-12T08:24:57.142Z,15.35
2018-12-12T08:27:24.538Z,15.55
2018-12-12T08:29:51.816Z,16.85
2018-12-12T08:32:22.960Z,16.27
2018-12-12T08:34:50.394Z,16.25
2018-12-12T08:37:17.877Z,16.32
2018-12-12T08:39:45.189Z,15.72
2018-12-12T08:42:12.497Z,16.52
2018-12-12T08:44:45.847Z,16.35
2018-12-12T08:47:13.173Z,17.77
2018-12-12T08:49:40.482Z,15.23
2018-12-12T08:52:07.800Z,16.07
2018-12-12T08:54:35.089Z,16.40
2018-12-12T08:57:02.993Z,15.20
2018-12-12T08:59:34.286Z,15.63
2018-12-12T09:02:01.717Z,15.55
2018-12-12T09:04:29.017Z,15.78
2018-12-12T09:06:56.338Z,16.35
2018-12-12T09:09:23.726Z,14.60
2018-12-12T09:11:51.158Z,15.95
2018-12-12T09:14:21.064Z,15.80
2018-12-12T09:16:48.394Z,14.63
2018-12-12T09:19:15.711Z,14.90
2018-12-12T09:21:43.018Z,14.87
2018-12-12T09:24:10.326Z,15.60
2018-12-12T09:26:37.949Z,15.15
2018-12-12T09:29:05.246Z,15.00
2018-12-12T09:31:34.780Z,13.70
2018-12-12T09:34:02.173Z,14.53
2018-12-12T09:36:29.493Z,13.88
2018-12-12T09:38:56.765Z,13.98
2018-12-12T09:41:24.090Z,14.40
2018-12-12T09:43:57.674Z,14.33
2018-12-12T09:46:25.005Z,12.90
2018-12-12T09:48:52.510Z,14.05
2018-12-12T09:51:19.952Z,13.50
2018-12-12T09:53:47.218Z,13.70
2018-12-12T09:56:14.485Z,13.85
2018-12-12T09:58:42.890Z,14.68
2018-12-12T10:01:11.558Z,13.95
2018-12-12T10:03:39.983Z,13.28
2018-12-12T10:06:08.425Z,13.38
2018-12-12T10:08:38.557Z,13.58
2018-12-12T10:11:08.279Z,12.88
2018-12-12T10:13:35.577Z,11.88
2018-12-12T10:16:03.981Z,12.70
2018-12-12T10:18:32.431Z,11.95
2018-12-12T10:21:00.849Z,12.55
2018-12-12T10:23:33.777Z,11.97
2018-12-12T10:26:01.322Z,12.00
2018-12-12T10:28:28.653Z,11.25
2018-12-12T10:30:55.966Z,11.63
2018-12-12T10:33:23.333Z,12.60
2018-12-12T10:35:51.762Z,10.95
2018-12-12T10:38:21.510Z,11.55
2018-12-12T10:40:48.836Z,11.60
2018-12-12T10:43:16.232Z,12.05
2018-12-12T10:45:44.685Z,10.95
2018-12-12T10:48:13.347Z,11.48
2018-12-12T10:50:46.749Z,11.63
2018-12-12T10:53:14.105Z,11.70
2018-12-12T10:55:41.417Z,11.48
2018-12-12T10:58:08.725Z,11.25
2018-12-12T11:00:39.424Z,11.80
2018-12-12T11:03:20.161Z,11.50
2018-12-12T11:05:47.430Z,10.98
2018-12-12T11:08:14.729Z,12.10
2018-12-12T11:10:42.283Z,12.45
2018-12-12T11:13:09.577Z,13.28
2018-12-12T11:15:38.884Z,13.28
2018-12-12T11:18:06.205Z,12.93
2018-12-12T11:20:33.697Z,13.55
2018-12-12T11:23:01.219Z,12.70
2018-12-12T11:25:29.795Z,13.78
2018-12-12T11:27:58.280Z,12.78
2018-12-12T11:30:29.561Z,14.23
2018-12-12T11:32:56.874Z,14.20
2018-12-12T11:35:24.251Z,13.95
2018-12-12T11:37:51.579Z,12.95
2018-12-12T11:40:20.118Z,14.15
2018-12-12T11:42:54.507Z,13.80
2018-12-12T11:45:21.945Z,14.50
2018-12-12T11:47:49.295Z,13.55
2018-12-12T11:50:16.587Z,13.35
2018-12-12T11:52:43.849Z,13.35
2018-12-12T11:55:16.249Z,13.83
2018-12-12T11:57:43.697Z,13.03
2018-12-12T12:00:11.680Z,13.55
2018-12-12T12:02:38.991Z,13.35
2018-12-12T12:05:06.470Z,13.80
2018-12-12T12:07:33.810Z,12.70
2018-12-12T12:10:07.201Z,12.88
2018-12-12T12:12:34.881Z,12.90
2018-12-12T12:15:02.468Z,12.40
2018-12-12T12:17:29.867Z,13.28
2018-12-12T12:19:57.149Z,13.55
2018-12-12T12:22:28.644Z,13.38
2018-12-12T12:24:56.037Z,13.08
2018-12-12T12:27:23.357Z,12.00
2018-12-12T12:29:50.647Z,12.80
2018-12-12T12:32:19.045Z,13.35
2018-12-12T12:34:51.918Z,13.90
2018-12-12T12:37:19.269Z,13.00
2018-12-12T12:39:46.580Z,12.70
2018-12-12T12:42:13.903Z,13.18
2018-12-12T12:44:41.235Z,12.35
2018-12-12T12:47:08.599Z,13.40
2018-12-12T12:49:39.862Z,13.53
2018-12-12T12:52:07.286Z,13.22
2018-12-12T12:54:34.681Z,12.90
2018-12-12T12:57:02.122Z,13.38
2018-12-12T12:59:30.605Z,12.15
2018-12-12T13:02:04.170Z,11.97
2018-12-12T13:04:31.501Z,14.30
2018-12-12T13:06:58.889Z,12.18
2018-12-12T13:09:26.326Z,11.43
2018-12-12T13:11:53.795Z,12.00
2018-12-12T13:14:21.169Z,10.32
2018-12-12T13:16:51.146Z,10.43
2018-12-12T13:19:18.433Z,11.97
2018-12-12T13:21:46.879Z,11.83
2018-12-12T13:24:15.353Z,11.55
2018-12-12T13:26:43.996Z,11.63
2018-12-12T13:29:17.019Z,11.85
2018-12-12T13:31:44.362Z,11.08
2018-12-12T13:34:16.272Z,11.80
2018-12-12T13:36:41.004Z,11.63
2018-12-12T13:39:08.300Z,11.75
2018-12-12T13:41:41.497Z,12.45
2018-12-12T13:44:08.859Z,12.23
2018-12-12T13:46:36.809Z,10.98
2018-12-12T13:49:04.110Z,10.25
2018-12-12T13:51:31.830Z,8.70
2018-12-12T13:53:59.192Z,9.63
2018-12-12T13:56:28.048Z,8.98
2018-12-12T13:58:55.363Z,9.33
2018-12-12T14:01:22.682Z,9.65
2018-12-12T14:03:51.145Z,9.78
2018-12-12T14:06:19.709Z,10.70
2018-12-12T14:08:52.241Z,11.30
2018-12-12T14:11:19.847Z,11.25
2018-12-12T14:13:47.162Z,9.80
2018-12-12T14:16:14.550Z,10.45
2018-12-12T14:18:41.854Z,10.88
2018-12-12T14:21:15.686Z,9.70
2018-12-12T14:23:43.019Z,10.90
2018-12-12T14:26:10.398Z,11.90
2018-12-12T14:28:37.884Z,10.75
2018-12-12T14:31:05.293Z,12.88
2018-12-12T14:33:36.636Z,12.10
2018-12-12T14:36:04.152Z,13.62
2018-12-12T14:38:31.442Z,15.03
2018-12-12T14:40:58.845Z,13.68
2018-12-12T14:43:27.409Z,11.45
2018-12-12T14:46:00.973Z,11.15
2018-12-12T14:48:30.392Z,11.10
2018-12-12T14:50:57.825Z,11.50
2018-12-12T14:53:25.103Z,12.63
2018-12-12T14:55:52.470Z,11.35
2018-12-12T14:58:24.369Z,10.90
2018-12-12T15:00:51.645Z,10.95
2018-12-12T15:03:19.081Z,10.82
2018-12-12T15:05:46.437Z,10.03
2018-12-12T15:08:13.742Z,10.60
2018-12-12T15:10:44.081Z,11.55
2018-12-12T15:13:13.125Z,10.15
2018-12-12T15:15:40.502Z,10.60
2018-12-12T15:18:07.829Z,11.38
2018-12-12T15:20:35.151Z,12.25
2018-12-12T15:23:03.665Z,11.05
2018-12-12T15:25:35.257Z,12.07
2018-12-12T15:28:02.681Z,10.93
2018-12-12T15:30:29.983Z,10.53
2018-12-12T15:32:57.288Z,10.78
2018-12-12T15:35:25.573Z,9.58
2018-12-12T15:37:57.378Z,11.48
2018-12-12T15:40:24.670Z,11.85
2018-12-12T15:42:51.993Z,10.93
2018-12-12T15:45:19.428Z,11.38
2018-12-12T15:47:46.730Z,10.48
2018-12-12T15:50:20.335Z,12.18
2018-12-12T15:52:47.631Z,10.93
2018-12-12T15:55:15.018Z,11.45
2018-12-12T15:57:42.345Z,10.80
2018-12-12T16:00:10.998Z,11.35
2018-12-12T16:02:38.737Z,11.90
2018-12-12T16:05:12.235Z,12.47
2018-12-12T16:07:39.780Z,10.90
2018-12-12T16:10:07.616Z,10.98
2018-12-12T16:12:35.170Z,11.15
2018-12-12T16:15:03.096Z,12.05
2018-12-12T16:17:37.123Z,10.63
2018-12-12T16:20:05.464Z,10.20
2018-12-12T16:22:32.801Z,9.43
2018-12-12T16:25:00.541Z,10.55
2018-12-12T16:27:28.133Z,11.03
2018-12-12T16:30:01.469Z,11.53
2018-12-12T16:32:28.897Z,10.10
2018-12-12T16:34:56.190Z,10.93
2018-12-12T16:37:23.482Z,11.10
2018-12-12T16:39:50.818Z,12.13
2018-12-12T16:42:23.370Z,12.85
2018-12-12T16:44:51.107Z,11.18
2018-12-12T16:47:18.445Z,10.95
2018-12-12T16:49:45.775Z,11.40
2018-12-12T16:52:13.093Z,11.50
2018-12-12T16:54:40.413Z,12.53
2018-12-12T16:57:07.849Z,13.28
2018-12-12T16:59:36.954Z,13.08
2018-12-12T17:02:04.288Z,12.13
2018-12-12T17:04:31.585Z,11.83
2018-12-12T17:06:58.900Z,12.85
2018-12-12T17:09:27.270Z,11.70
2018-12-12T17:11:59.799Z,11.05
2018-12-12T17:14:27.178Z,11.15
2018-12-12T17:16:54.587Z,10.15
2018-12-12T17:19:23.070Z,12.03
2018-12-12T17:21:51.543Z,11.53
2018-12-12T17:24:25.739Z,10.35
2018-12-12T17:26:53.085Z,11.57
2018-12-12T17:29:20.731Z,11.75
2018-12-12T17:31:48.172Z,11.53
2018-12-12T17:34:15.762Z,10.95
2018-12-12T17:36:49.109Z,11.12
2018-12-12T17:39:16.515Z,11.55
2018-12-12T17:41:43.904Z,13.28
2018-12-12T17:44:11.209Z,12.25
2018-12-12T17:46:38.524Z,12.15
2018-12-12T17:49:05.980Z,12.50
2018-12-12T17:51:35.768Z,12.10
2018-12-12T17:54:03.424Z,12.85
2018-12-12T17:56:30.760Z,13.43
2018-12-12T17:58:59.145Z,12.43
2018-12-12T18:01:27.609Z,12.93
2018-12-12T18:03:59.703Z,11.55
2018-12-12T18:06:27.006Z,11.73
2018-12-12T18:08:54.349Z,11.25
2018-12-12T18:11:22.006Z,11.15
2018-12-12T18:13:50.401Z,12.20
2018-12-12T18:16:24.221Z,11.30
2018-12-12T18:18:51.452Z,11.68
2018-12-12T18:21:18.981Z,10.88
2018-12-12T18:23:46.421Z,10.23
2018-12-12T18:26:13.825Z,10.43
2018-12-12T18:28:41.154Z,10.82
2018-12-12T18:31:10.857Z,11.38
2018-12-12T18:33:38.167Z,11.50
2018-12-12T18:36:05.510Z,10.48
2018-12-12T18:38:34.073Z,10.35
2018-12-12T18:41:02.720Z,10.10
2018-12-12T18:43:33.548Z,9.80
2018-12-12T18:46:02.242Z,10.25
2018-12-12T18:48:29.545Z,11.05
2018-12-12T18:50:56.861Z,10.93
2018-12-12T18:53:25.157Z,9.30
2018-12-12T18:55:52.433Z,10.60
2018-12-12T18:58:20.872Z,10.88
2018-12-12T19:00:51.087Z,10.45
2018-12-12T19:03:18.366Z,9.48
2018-12-12T19:05:46.773Z,10.55
2018-12-12T19:08:15.280Z,9.80
2018-12-12T19:10:43.689Z,10.05
2018-12-12T19:13:17.277Z,9.63
2018-12-12T19:15:44.576Z,10.03
2018-12-12T19:18:11.871Z,9.70
2018-12-12T19:20:39.169Z,10.18
2018-12-12T19:23:06.513Z,10.15
2018-12-12T19:25:34.830Z,10.20
2018-12-12T19:28:08.365Z,9.95
2018-12-12T19:30:36.013Z,9.68
2018-12-12T19:33:03.691Z,9.88
2018-12-12T19:35:34.785Z,9.25
2018-12-12T19:38:00.443Z,9.60
2018-12-12T19:40:27.930Z,9.63
2018-12-12T19:42:56.999Z,9.78
2018-12-12T19:45:24.454Z,9.25
2018-12-12T19:47:52.026Z,10.58
2018-12-12T19:50:19.389Z,9.13
2018-12-12T19:52:46.686Z,9.80
2018-12-12T19:55:19.681Z,9.95
2018-12-12T19:57:47.076Z,10.25
2018-12-12T20:00:14.500Z,10.13
2018-12-12T20:02:43.006Z,10.32
2018-12-12T20:05:11.650Z,10.40
2018-12-12T20:07:46.843Z,11.83
2018-12-12T20:10:14.365Z,11.12
2018-12-12T20:12:41.671Z,11.40
2018-12-12T20:15:13.709Z,11.03
2018-12-12T20:17:41.038Z,10.13
2018-12-12T20:20:13.529Z,11.25
2018-12-12T20:22:40.889Z,10.50
2018-12-12T20:25:08.311Z,11.38
2018-12-12T20:27:35.881Z,10.85
2018-12-12T20:30:03.537Z,11.45
2018-12-12T20:32:35.793Z,10.93
2018-12-12T20:35:03.610Z,11.25
2018-12-12T20:37:30.957Z,11.15
2018-12-12T20:39:58.257Z,10.50
2018-12-12T20:42:26.098Z,10.82
2018-12-12T20:44:53.581Z,10.70
2018-12-12T20:47:24.992Z,11.12
2018-12-12T20:49:52.289Z,10.70
2018-12-12T20:52:19.718Z,11.20
2018-12-12T20:54:47.001Z,10.60
2018-12-12T20:57:14.356Z,11.30
2018-12-12T21:02:14.392Z,11.22
2018-12-12T21:04:41.944Z,11.93
2018-12-12T21:07:09.311Z,10.40
2018-12-12T21:09:36.810Z,10.35
2018-12-12T21:12:07.255Z,11.40
2018-12-12T21:14:41.005Z,11.25
2018-12-12T21:17:08.358Z,11.35
2018-12-12T21:19:35.634Z,11.75
2018-12-12T21:22:03.329Z,11.12
2018-12-12T21:24:30.606Z,13.28
2018-12-12T21:26:57.894Z,11.30
2018-12-12T21:29:25.230Z,11.12
2018-12-12T21:31:52.894Z,12.20
2018-12-12T21:34:26.551Z,11.60
2018-12-12T21:36:53.917Z,12.40
2018-12-12T21:39:21.229Z,12.13
2018-12-12T21:41:48.592Z,11.55
2018-12-12T21:44:17.294Z,12.35
2018-12-12T21:46:44.588Z,11.75
2018-12-12T21:49:11.922Z,11.83
2018-12-12T21:51:40.156Z,11.43
2018-12-12T21:54:07.630Z,12.58
2018-12-12T21:56:35.031Z,11.95
2018-12-12T21:59:02.619Z,11.93
2018-12-12T22:01:30.401Z,11.48
2018-12-12T22:03:58.885Z,11.83
2018-12-12T22:06:28.609Z,11.90
2018-12-12T22:08:55.903Z,12.33
2018-12-12T22:11:24.302Z,11.63
2018-12-12T22:13:52.761Z,12.00
2018-12-12T22:16:21.205Z,11.28
2018-12-12T22:18:49.713Z,10.95
2018-12-12T22:21:18.130Z,11.38
2018-12-12T22:23:46.645Z,11.00
2018-12-12T22:26:15.313Z,11.03
2018-12-12T22:28:43.746Z,11.63
2018-12-12T22:31:12.221Z,11.38
2018-12-12T22:33:40.629Z,11.97
2018-12-12T22:36:14.094Z,10.58
2018-12-12T22:38:39.774Z,11.30
2018-12-12T22:41:08.248Z,11.08
2018-12-12T22:43:36.864Z,10.95
2018-12-12T22:46:05.213Z,11.18
2018-12-12T22:48:33.537Z,11.53
2018-12-12T22:51:02.061Z,11.88
2018-12-12T22:53:30.649Z,11.93
2018-12-12T22:55:59.058Z,11.73
2018-12-12T22:58:27.491Z,12.98
2018-12-12T23:01:01.519Z,11.15
2018-12-12T23:03:29.933Z,11.83
2018-12-12T23:05:58.485Z,10.28
2018-12-12T23:08:26.938Z,11.70
2018-12-12T23:10:55.273Z,12.95
2018-12-12T23:13:23.792Z,11.45
2018-12-12T23:15:52.488Z,11.85
2018-12-12T23:18:20.914Z,10.75
2018-12-12T23:20:48.242Z,11.38
2018-12-12T23:23:16.724Z,12.07
2018-12-12T23:25:45.703Z,11.28
2018-12-12T23:28:14.158Z,12.18
2018-12-12T23:30:42.651Z,11.57
2018-12-12T23:33:11.977Z,11.85
2018-12-12T23:35:41.403Z,11.83
2018-12-12T23:38:09.956Z,12.20
2018-12-12T23:40:38.352Z,11.18
2018-12-12T23:43:07.026Z,11.78
2018-12-12T23:45:36.486Z,11.55
2018-12-12T23:48:04.134Z,11.97
2018-12-12T23:50:32.627Z,11.08
2018-12-12T23:53:01.052Z,11.28
2018-12-12T23:55:29.578Z,11.75
2018-12-12T23:57:58.068Z,11.83
